Autopride — CQQE — position and weather

sailwx.info

Track history (hours):
 
Tides and Currents Weather Stations Pressure Air Temp Water Temp Dewpoint Dewpoint Depression Visibility Wind Speed Wind Dir Waves Ship Positions

Autopride

Last reported at 2017-Jan-17 04:32 UTC. Time now 2017-Jan-17 04:54 UTC.
Position N 53°35' E 008°33'.

Length 125 m; draft 4.8 m.

Type: Cargo ship. MMSI: 255801560.

Date/timePositionNaut miles runAvg speedWind from/ knotsBaromVisibWave heightAir tempDewpointWater temp
2017-Jan-17 04:32N 53°35' E 008°33'0 0.0
2017-Jan-17 03:32N 53°35' E 008°33'0 0.0
2017-Jan-17 02:32N 53°35' E 008°33'0 0.0
2017-Jan-17 01:34N 53°35' E 008°33'0 0.5
2017-Jan-17 00:33N 53°34' E 008°33'5 5.2
2017-Jan-16 23:33N 53°38' E 008°27'1818.2
2017-Jan-16 22:33N 53°50' E 008°04'1312.9
2017-Jan-16 21:31N 53°53' E 007°42'5 5.5
2017-Jan-16 20:33N 53°54' E 007°33'36 5.1
2017-Jan-16 13:24N 53°32' E 006°45'1113.2
2017-Jan-16 12:34N 53°24' E 006°57'8 7.8
2017-Jan-16 11:33N 53°20' E 007°09'2 1.8
2017-Jan-16 10:33N 53°20' E 007°12'1 0.6
2017-Jan-16 09:20N 53°21' E 007°12'0 0.0
2017-Jan-15 22:32N 53°21' E 007°12'0 0.0
2017-Jan-15 20:32N 53°21' E 007°12'0 0.0
2017-Jan-15 19:32N 53°21' E 007°12'0 0.0
2017-Jan-15 18:32N 53°21' E 007°12'0 0.0
2017-Jan-15 17:32N 53°21' E 007°12'0 0.0
2017-Jan-15 16:32N 53°21' E 007°12'0 0.0
2017-Jan-15 15:32N 53°21' E 007°12'0 0.0
2017-Jan-15 14:32N 53°21' E 007°12'0 0.0
2017-Jan-15 13:26N 53°21' E 007°12'0 0.0
2017-Jan-15 09:26N 53°21' E 007°12'0 0.0
2017-Jan-15 08:29N 53°21' E 007°12'0 0.0
2017-Jan-15 07:17N 53°21' E 007°12'0 0.0
2017-Jan-14 22:26N 53°21' E 007°12'0 0.0
2017-Jan-14 21:31N 53°21' E 007°12'0 0.0
2017-Jan-14 20:31N 53°21' E 007°12'0 0.0
2017-Jan-14 19:31N 53°21' E 007°12'0 0.0
2017-Jan-14 18:31N 53°21' E 007°12'0 0.0
2017-Jan-14 17:31N 53°21' E 007°12'0 0.0
2017-Jan-14 16:31N 53°21' E 007°12'0 0.0
2017-Jan-14 15:31N 53°21' E 007°12'0 0.0
2017-Jan-14 14:28N 53°21' E 007°12'0 0.0
2017-Jan-14 13:28N 53°21' E 007°12'0 0.0
2017-Jan-14 12:28N 53°21' E 007°12'0 0.0
2017-Jan-14 11:31N 53°21' E 007°12'0 0.0
2017-Jan-14 09:22N 53°21' E 007°12'0 0.0
2017-Jan-13 22:25N 53°21' E 007°12'0 0.0
2017-Jan-13 21:31N 53°21' E 007°12'0 0.0
2017-Jan-13 20:31N 53°21' E 007°12'0 0.0
2017-Jan-13 19:31N 53°21' E 007°12'0 0.0
2017-Jan-13 18:31N 53°21' E 007°12'0 0.0
2017-Jan-13 17:28N 53°21' E 007°12'0 0.0
2017-Jan-13 16:28N 53°21' E 007°12'0 0.0
2017-Jan-13 15:28N 53°21' E 007°12'0 0.0
2017-Jan-13 14:28N 53°21' E 007°12'0 0.0
2017-Jan-11 23:26N 53°21' E 007°12'0 0.0
2017-Jan-11 22:23N 53°21' E 007°12'0 0.0
2017-Jan-11 21:32N 53°21' E 007°12'0 0.0
2017-Jan-11 20:17N 53°21' E 007°12'0 0.0
2017-Jan-11 19:29N 53°21' E 007°12'0 0.0
2017-Jan-11 18:29N 53°21' E 007°12'0 0.0
2017-Jan-11 17:29N 53°21' E 007°12'0 0.0
2017-Jan-11 16:08N 53°21' E 007°12'0 0.0
2017-Jan-11 15:32N 53°21' E 007°12'0 0.0
2017-Jan-11 14:26N 53°21' E 007°12'0 0.0
2017-Jan-11 13:32N 53°21' E 007°12'0 0.0
2017-Jan-11 12:32N 53°21' E 007°12'0 0.0
2017-Jan-11 11:29N 53°21' E 007°12'0 0.0
2017-Jan-11 10:14N 53°21' E 007°12'0 0.0
2017-Jan-11 07:11N 53°21' E 007°12'0 0.0
2017-Jan-09 23:31N 53°21' E 007°12'0 0.0
2017-Jan-09 22:31N 53°21' E 007°12'0 0.0
2017-Jan-09 21:31N 53°21' E 007°12'0 0.0
2017-Jan-09 20:31N 53°21' E 007°12'0 0.0
2017-Jan-09 19:25N 53°21' E 007°12'0 0.0
2017-Jan-09 18:31N 53°21' E 007°12'0 0.0
2017-Jan-09 17:31N 53°21' E 007°12'0 0.0
2017-Jan-09 16:31N 53°21' E 007°12'0 0.0
2017-Jan-09 15:28N 53°21' E 007°12'0 0.0
2017-Jan-09 14:31N 53°21' E 007°12'0 0.0
2017-Jan-09 13:31N 53°21' E 007°12'0 0.0
2017-Jan-08 22:10N 53°21' E 007°12'0 0.0
2017-Jan-08 21:28N 53°21' E 007°12'0 0.0
2017-Jan-08 20:31N 53°21' E 007°12'0 0.0
2017-Jan-08 19:34N 53°21' E 007°12'0 0.0
2017-Jan-08 18:34N 53°21' E 007°12'0 0.0
2017-Jan-08 17:30N 53°21' E 007°12'0 0.0
2017-Jan-08 16:27N 53°21' E 007°12'0 0.0
2017-Jan-08 15:33N 53°21' E 007°12'0 0.0
2017-Jan-08 14:33N 53°21' E 007°12'0 0.0
2017-Jan-08 13:30N 53°21' E 007°12'0 0.0
2017-Jan-08 12:30N 53°21' E 007°12'0 0.0
2017-Jan-08 11:33N 53°21' E 007°12'0 0.0
2017-Jan-08 10:33N 53°21' E 007°12'0 0.0
2017-Jan-08 09:33N 53°21' E 007°12'0 0.0
2017-Jan-08 01:24N 53°21' E 007°12'0 0.0
2017-Jan-08 00:30N 53°21' E 007°12'0 0.0
2017-Jan-07 23:33N 53°21' E 007°12'0 0.0
2017-Jan-07 22:33N 53°21' E 007°12'0 0.0
2017-Jan-07 21:27N 53°21' E 007°12'0 0.0
2017-Jan-07 20:33N 53°21' E 007°12'0 0.0
2017-Jan-07 19:33N 53°21' E 007°12'0 0.0
2017-Jan-07 18:33N 53°21' E 007°12'0 0.0
2017-Jan-07 17:33N 53°21' E 007°12'0 0.0
2017-Jan-07 16:33N 53°21' E 007°12'0 0.0
2017-Jan-07 15:33N 53°21' E 007°12'0 0.0
2017-Jan-07 14:30N 53°21' E 007°12'0 0.0
2017-Jan-07 13:30N 53°21' E 007°12'0 0.0
2017-Jan-07 12:30N 53°21' E 007°12'0 0.0
2017-Jan-07 11:30N 53°21' E 007°12'0 0.0
2017-Jan-07 10:27N 53°21' E 007°12'0 0.0
2017-Jan-07 09:33N 53°21' E 007°12'0 0.0
2017-Jan-07 08:33N 53°21' E 007°12'0 0.0
2017-Jan-07 05:18N 53°21' E 007°12'0 0.0
2017-Jan-07 04:33N 53°21' E 007°12'  
Track history (hours):
 
Tides and Currents Weather Stations Pressure Air Temp Water Temp Dewpoint Dewpoint Depression Visibility Wind Speed Wind Dir Waves Ship Positions

Autopride

Last reported at 2017-Jan-17 04:32 UTC. Time now 2017-Jan-17 04:54 UTC.
Position N 53°35' E 008°33'.

Length 125 m; draft 4.8 m.

Type: Cargo ship. MMSI: 255801560.

Date/timePositionNaut miles runAvg speedWind from/ knotsBaromVisibWave heightAir tempDewpointWater temp
2017-Jan-17 04:32N 53°35' E 008°33'0 0.0
2017-Jan-17 03:32N 53°35' E 008°33'0 0.0
2017-Jan-17 02:32N 53°35' E 008°33'0 0.0
2017-Jan-17 01:34N 53°35' E 008°33'0 0.5
2017-Jan-17 00:33N 53°34' E 008°33'5 5.2
2017-Jan-16 23:33N 53°38' E 008°27'1818.2
2017-Jan-16 22:33N 53°50' E 008°04'1312.9
2017-Jan-16 21:31N 53°53' E 007°42'5 5.5
2017-Jan-16 20:33N 53°54' E 007°33'36 5.1
2017-Jan-16 13:24N 53°32' E 006°45'1113.2
2017-Jan-16 12:34N 53°24' E 006°57'8 7.8
2017-Jan-16 11:33N 53°20' E 007°09'2 1.8
2017-Jan-16 10:33N 53°20' E 007°12'1 0.6
2017-Jan-16 09:20N 53°21' E 007°12'0 0.0
2017-Jan-15 22:32N 53°21' E 007°12'0 0.0
2017-Jan-15 20:32N 53°21' E 007°12'0 0.0
2017-Jan-15 19:32N 53°21' E 007°12'0 0.0
2017-Jan-15 18:32N 53°21' E 007°12'0 0.0
2017-Jan-15 17:32N 53°21' E 007°12'0 0.0
2017-Jan-15 16:32N 53°21' E 007°12'0 0.0
2017-Jan-15 15:32N 53°21' E 007°12'0 0.0
2017-Jan-15 14:32N 53°21' E 007°12'0 0.0
2017-Jan-15 13:26N 53°21' E 007°12'0 0.0
2017-Jan-15 09:26N 53°21' E 007°12'0 0.0
2017-Jan-15 08:29N 53°21' E 007°12'0 0.0
2017-Jan-15 07:17N 53°21' E 007°12'0 0.0
2017-Jan-14 22:26N 53°21' E 007°12'0 0.0
2017-Jan-14 21:31N 53°21' E 007°12'0 0.0
2017-Jan-14 20:31N 53°21' E 007°12'0 0.0
2017-Jan-14 19:31N 53°21' E 007°12'0 0.0
2017-Jan-14 18:31N 53°21' E 007°12'0 0.0
2017-Jan-14 17:31N 53°21' E 007°12'0 0.0
2017-Jan-14 16:31N 53°21' E 007°12'0 0.0
2017-Jan-14 15:31N 53°21' E 007°12'0 0.0
2017-Jan-14 14:28N 53°21' E 007°12'0 0.0
2017-Jan-14 13:28N 53°21' E 007°12'0 0.0
2017-Jan-14 12:28N 53°21' E 007°12'0 0.0
2017-Jan-14 11:31N 53°21' E 007°12'0 0.0
2017-Jan-14 09:22N 53°21' E 007°12'0 0.0
2017-Jan-13 22:25N 53°21' E 007°12'0 0.0
2017-Jan-13 21:31N 53°21' E 007°12'0 0.0
2017-Jan-13 20:31N 53°21' E 007°12'0 0.0
2017-Jan-13 19:31N 53°21' E 007°12'0 0.0
2017-Jan-13 18:31N 53°21' E 007°12'0 0.0
2017-Jan-13 17:28N 53°21' E 007°12'0 0.0
2017-Jan-13 16:28N 53°21' E 007°12'0 0.0
2017-Jan-13 15:28N 53°21' E 007°12'0 0.0
2017-Jan-13 14:28N 53°21' E 007°12'0 0.0
2017-Jan-11 23:26N 53°21' E 007°12'0 0.0
2017-Jan-11 22:23N 53°21' E 007°12'0 0.0
2017-Jan-11 21:32N 53°21' E 007°12'0 0.0
2017-Jan-11 20:17N 53°21' E 007°12'0 0.0
2017-Jan-11 19:29N 53°21' E 007°12'0 0.0
2017-Jan-11 18:29N 53°21' E 007°12'0 0.0
2017-Jan-11 17:29N 53°21' E 007°12'0 0.0
2017-Jan-11 16:08N 53°21' E 007°12'0 0.0
2017-Jan-11 15:32N 53°21' E 007°12'0 0.0
2017-Jan-11 14:26N 53°21' E 007°12'0 0.0
2017-Jan-11 13:32N 53°21' E 007°12'0 0.0
2017-Jan-11 12:32N 53°21' E 007°12'0 0.0
2017-Jan-11 11:29N 53°21' E 007°12'0 0.0
2017-Jan-11 10:14N 53°21' E 007°12'0 0.0
2017-Jan-11 07:11N 53°21' E 007°12'0 0.0
2017-Jan-09 23:31N 53°21' E 007°12'0 0.0
2017-Jan-09 22:31N 53°21' E 007°12'0 0.0
2017-Jan-09 21:31N 53°21' E 007°12'0 0.0
2017-Jan-09 20:31N 53°21' E 007°12'0 0.0
2017-Jan-09 19:25N 53°21' E 007°12'0 0.0
2017-Jan-09 18:31N 53°21' E 007°12'0 0.0
2017-Jan-09 17:31N 53°21' E 007°12'0 0.0
2017-Jan-09 16:31N 53°21' E 007°12'0 0.0
2017-Jan-09 15:28N 53°21' E 007°12'0 0.0
2017-Jan-09 14:31N 53°21' E 007°12'0 0.0
2017-Jan-09 13:31N 53°21' E 007°12'0 0.0
2017-Jan-08 22:10N 53°21' E 007°12'0 0.0
2017-Jan-08 21:28N 53°21' E 007°12'0 0.0
2017-Jan-08 20:31N 53°21' E 007°12'0 0.0
2017-Jan-08 19:34N 53°21' E 007°12'0 0.0
2017-Jan-08 18:34N 53°21' E 007°12'0 0.0
2017-Jan-08 17:30N 53°21' E 007°12'0 0.0
2017-Jan-08 16:27N 53°21' E 007°12'0 0.0
2017-Jan-08 15:33N 53°21' E 007°12'0 0.0
2017-Jan-08 14:33N 53°21' E 007°12'0 0.0
2017-Jan-08 13:30N 53°21' E 007°12'0 0.0
2017-Jan-08 12:30N 53°21' E 007°12'0 0.0
2017-Jan-08 11:33N 53°21' E 007°12'0 0.0
2017-Jan-08 10:33N 53°21' E 007°12'0 0.0
2017-Jan-08 09:33N 53°21' E 007°12'0 0.0
2017-Jan-08 01:24N 53°21' E 007°12'0 0.0
2017-Jan-08 00:30N 53°21' E 007°12'0 0.0
2017-Jan-07 23:33N 53°21' E 007°12'0 0.0
2017-Jan-07 22:33N 53°21' E 007°12'0 0.0
2017-Jan-07 21:27N 53°21' E 007°12'0 0.0
2017-Jan-07 20:33N 53°21' E 007°12'0 0.0
2017-Jan-07 19:33N 53°21' E 007°12'0 0.0
2017-Jan-07 18:33N 53°21' E 007°12'0 0.0
2017-Jan-07 17:33N 53°21' E 007°12'0 0.0
2017-Jan-07 16:33N 53°21' E 007°12'0 0.0
2017-Jan-07 15:33N 53°21' E 007°12'0 0.0
2017-Jan-07 14:30N 53°21' E 007°12'0 0.0
2017-Jan-07 13:30N 53°21' E 007°12'0 0.0
2017-Jan-07 12:30N 53°21' E 007°12'0 0.0
2017-Jan-07 11:30N 53°21' E 007°12'0 0.0
2017-Jan-07 10:27N 53°21' E 007°12'0 0.0
2017-Jan-07 09:33N 53°21' E 007°12'0 0.0
2017-Jan-07 08:33N 53°21' E 007°12'0 0.0
2017-Jan-07 05:18N 53°21' E 007°12'0 0.0
2017-Jan-07 04:33N 53°21' E 007°12'  

Dump ship's entire track history